Etusivu
METAR-TAF:

METAR-TAF

Lentoasemat :

Fayette Regional Air Center

La Grange, Texas, Yhdysvallat

Leveyspiiri: 29-54-29N, Pituuspiiri: 096-57-00W, korkeus merenpinnasta: 99 m

Tämänhetkinen sää

Tämä raportti tehtiin 10 minuuttia sitten, kello 20.55 UTC
Tuuli 9 kn etelästä/kaakosta
Lämpötila 21°C
Kosteus 73%
Ilmanpaine 1014 hPa
Näkyvyys: 16.1 km
Hajonneita pilviä 2500 ft:n korkeudessa
Pilvistä 3100 ft:n korkeudessa

METAR: K3T5 232055Z AUTO 15009KT 10SM BKN025 OVC031 21/16 A2993 RMK AO2 T02080164

Aika: 15:05 (21:05 UTC)


TAF: puuttuu

Säähavainnot ja -ennusteet yli 4000 lentoasemalta (METAR- ja TAF-raportit).

Käytössä olevat sääasemat on merkitty karttaan keltaisilla ja punaisilla pisteillä.

Aseta hiiri pisteen päälle nähdäksesi sääaseman nimen.

Klikkaa sitten nähdäksesi säähavainnot ja -ennusteet.

Kartan vaihtaminen: klikkaa mustalla rastilla varustettuja vihreitä pisteitä, niin voit zoomata sisään; viivalla varustettua vihreää pistettä, niin voit zoomata ulos tai vihreitä nuolia, niin pääset viereisille kartoille.


METAR-TAF: